Dwight, North Dakota
Current Conditions -  °F | °C
As of 4:55 PM on Wednesday 26 Nov 2014 (Local Time) from KBWP Reporting Station
Clear Clear  
Wind Chill: -11°   Ceiling: Unl
Heat Index:   Visibility: 10mi
Dew Point: -6°   Wind: 9mph
Humidity: 66%   Direction: 330°NNW
Pressure: 30.46"   Gusts: NA
Location:  46.3099°N, 96.7867°W
Report Text: KBWP 262255Z AUTO 33008KT 10SM CLR M16/M21 A3046 RMK AO1
Loading
Personal Weather Stations






























Interactive Weather Map New forecast layout! Learn more

10-Day Weather Forecast

Advertisements
Track Severe Weather on mobile